createdAt,value
2017-11-16T00:02:02.637Z,18.35
2017-11-16T00:04:30.871Z,17.90
2017-11-16T00:06:58.353Z,18.75
2017-11-16T00:09:25.823Z,20.08
2017-11-16T00:11:53.289Z,18.62
2017-11-16T00:14:20.788Z,18.67
2017-11-16T00:16:48.327Z,19.65
2017-11-16T00:19:16.582Z,19.92
2017-11-16T00:21:44.143Z,19.67
2017-11-16T00:24:11.626Z,21.27
2017-11-16T00:26:39.154Z,20.20
2017-11-16T00:29:06.643Z,19.12
2017-11-16T00:31:34.883Z,21.50
2017-11-16T00:34:02.396Z,20.85
2017-11-16T00:36:29.873Z,19.33
2017-11-16T00:38:57.357Z,20.50
2017-11-16T00:41:24.839Z,18.70
2017-11-16T00:43:53.084Z,20.02
2017-11-16T00:46:20.562Z,18.75
2017-11-16T00:48:48.808Z,21.50
2017-11-16T00:51:16.280Z,21.75
2017-11-16T00:53:43.761Z,19.30
2017-11-16T00:56:11.995Z,17.83
2017-11-16T00:58:39.571Z,19.50
2017-11-16T01:01:07.038Z,18.55
2017-11-16T01:03:35.274Z,19.60
2017-11-16T01:06:02.779Z,18.33
2017-11-16T01:08:31.011Z,19.52
2017-11-16T01:10:58.495Z,18.42
2017-11-16T01:13:26.762Z,17.65
2017-11-16T01:15:54.241Z,17.92
2017-11-16T01:18:21.782Z,17.52
2017-11-16T01:20:49.263Z,17.17
2017-11-16T01:23:17.527Z,17.37
2017-11-16T01:25:45.797Z,16.95
2017-11-16T01:28:13.270Z,19.92
2017-11-16T01:30:41.516Z,18.08
2017-11-16T01:33:08.991Z,19.27
2017-11-16T01:35:37.230Z,19.77
2017-11-16T01:38:04.699Z,17.87
2017-11-16T01:40:32.225Z,19.80
2017-11-16T01:42:59.702Z,16.35
2017-11-16T01:45:27.187Z,19.95
2017-11-16T01:47:54.747Z,17.62
2017-11-16T01:50:22.216Z,16.20
2017-11-16T01:52:50.463Z,19.20
2017-11-16T01:55:18.040Z,18.62
2017-11-16T01:57:46.317Z,17.45
2017-11-16T02:00:14.553Z,16.92
2017-11-16T02:02:42.045Z,18.08
2017-11-16T02:05:09.516Z,17.20
2017-11-16T02:07:37.758Z,16.20
2017-11-16T02:10:05.222Z,17.35
2017-11-16T02:12:32.791Z,16.45
2017-11-16T02:15:00.267Z,18.00
2017-11-16T02:17:28.496Z,16.83
2017-11-16T02:19:55.972Z,16.42
2017-11-16T02:22:23.443Z,17.90
2017-11-16T02:24:51.762Z,16.58
2017-11-16T02:27:19.322Z,16.48
2017-11-16T02:29:46.833Z,16.80
2017-11-16T02:32:14.314Z,16.95
2017-11-16T02:34:41.810Z,16.30
2017-11-16T02:37:09.282Z,16.42
2017-11-16T02:39:36.758Z,16.05
2017-11-16T02:42:04.313Z,17.85
2017-11-16T02:44:31.798Z,17.60
2017-11-16T02:47:00.033Z,17.50
2017-11-16T02:49:27.606Z,16.35
2017-11-16T02:51:55.085Z,15.43
2017-11-16T02:54:23.610Z,18.10
2017-11-16T02:56:51.095Z,17.15
2017-11-16T02:59:18.562Z,15.77
2017-11-16T03:01:46.829Z,16.02
2017-11-16T03:04:14.306Z,15.38
2017-11-16T03:06:42.567Z,17.10
2017-11-16T03:09:10.043Z,16.70
2017-11-16T03:11:38.282Z,17.50
2017-11-16T03:14:05.763Z,16.85
2017-11-16T03:16:33.997Z,18.65
2017-11-16T03:19:01.494Z,15.65
2017-11-16T03:21:29.746Z,16.48
2017-11-16T03:23:57.213Z,16.20
2017-11-16T03:26:24.686Z,16.40
2017-11-16T03:28:52.942Z,16.77
2017-11-16T03:31:20.424Z,17.30
2017-11-16T03:33:48.681Z,17.58
2017-11-16T03:36:16.245Z,16.02
2017-11-16T03:38:44.497Z,19.20
2017-11-16T03:41:11.982Z,17.15
2017-11-16T03:43:40.226Z,17.73
2017-11-16T03:46:07.711Z,17.87
2017-11-16T03:48:35.961Z,15.77
2017-11-16T03:51:03.466Z,16.02
2017-11-16T03:53:30.961Z,17.42
2017-11-16T03:55:58.434Z,15.95
2017-11-16T03:58:25.924Z,16.33
2017-11-16T04:00:54.172Z,17.25
2017-11-16T04:03:21.651Z,17.15
2017-11-16T04:05:49.899Z,15.23
2017-11-16T04:08:17.492Z,16.80
2017-11-16T04:10:45.726Z,17.00
2017-11-16T04:13:13.209Z,16.92
2017-11-16T04:15:41.491Z,18.08
2017-11-16T04:18:09.763Z,16.75
2017-11-16T04:20:38.033Z,18.60
2017-11-16T04:23:05.511Z,18.30
2017-11-16T04:25:33.773Z,17.75
2017-11-16T04:28:02.157Z,19.98
2017-11-16T04:30:30.424Z,20.50
2017-11-16T04:32:57.898Z,23.20
2017-11-16T04:35:26.140Z,19.55
2017-11-16T04:37:53.645Z,18.02
2017-11-16T04:40:21.116Z,19.48
2017-11-16T04:42:48.618Z,17.60
2017-11-16T04:45:16.101Z,18.30
2017-11-16T04:47:44.333Z,20.50
2017-11-16T04:50:11.825Z,19.27
2017-11-16T04:52:40.065Z,18.10
2017-11-16T04:55:07.642Z,20.30
2017-11-16T04:57:35.209Z,20.33
2017-11-16T05:00:02.684Z,19.10
2017-11-16T05:02:30.928Z,19.65
2017-11-16T05:04:58.403Z,18.70
2017-11-16T05:07:26.650Z,18.25
2017-11-16T05:09:54.161Z,18.25
2017-11-16T05:12:21.642Z,19.25
2017-11-16T05:14:49.156Z,18.30
2017-11-16T05:17:17.402Z,16.75
2017-11-16T05:19:44.874Z,18.95
2017-11-16T05:22:12.346Z,18.27
2017-11-16T05:24:40.608Z,18.67
2017-11-16T05:27:08.087Z,17.12
2017-11-16T05:29:36.331Z,18.77
2017-11-16T05:32:03.805Z,17.75
2017-11-16T05:34:32.042Z,16.92
2017-11-16T05:36:59.630Z,17.67
2017-11-16T05:39:27.104Z,17.90
2017-11-16T05:41:55.341Z,17.65
2017-11-16T05:44:22.814Z,15.77
2017-11-16T05:46:50.306Z,17.40
2017-11-16T05:49:17.823Z,16.12
2017-11-16T05:51:45.299Z,16.83
2017-11-16T05:54:13.562Z,17.23
2017-11-16T05:56:41.031Z,19.33
2017-11-16T05:59:09.274Z,15.65
2017-11-16T06:01:36.750Z,16.95
2017-11-16T06:04:04.226Z,16.62
2017-11-16T06:06:32.460Z,16.98
2017-11-16T06:09:00.039Z,16.45
2017-11-16T06:11:27.501Z,16.83
2017-11-16T06:13:54.970Z,16.02
2017-11-16T06:16:23.327Z,14.98
2017-11-16T06:18:50.787Z,17.42
2017-11-16T06:21:18.365Z,16.12
2017-11-16T06:23:46.605Z,16.70
2017-11-16T06:26:14.190Z,17.70
2017-11-16T06:28:41.682Z,16.55
2017-11-16T06:31:09.170Z,16.67
2017-11-16T06:33:36.643Z,16.92
2017-11-16T06:36:04.211Z,16.02
2017-11-16T06:38:31.692Z,18.65
2017-11-16T06:40:59.926Z,17.50
2017-11-16T06:43:27.405Z,17.10
2017-11-16T06:45:55.670Z,17.10
2017-11-16T06:48:23.144Z,17.75
2017-11-16T06:50:51.399Z,17.05
2017-11-16T06:53:18.857Z,18.40
2017-11-16T06:55:46.432Z,20.65
2017-11-16T06:58:13.908Z,18.65
2017-11-16T07:00:42.146Z,18.00
2017-11-16T07:03:09.610Z,19.77
2017-11-16T07:05:37.101Z,18.90
2017-11-16T07:08:05.330Z,19.25
2017-11-16T07:10:32.918Z,19.27
2017-11-16T07:13:01.165Z,19.98
2017-11-16T07:15:28.649Z,19.17
2017-11-16T07:17:56.135Z,20.83
2017-11-16T07:20:23.606Z,21.10
2017-11-16T07:22:51.074Z,19.60
2017-11-16T07:25:18.549Z,20.45
2017-11-16T07:27:46.076Z,21.67
2017-11-16T07:30:13.586Z,23.20
2017-11-16T07:32:41.148Z,22.10
2017-11-16T07:35:09.444Z,21.05
2017-11-16T07:37:36.989Z,22.33
2017-11-16T07:40:05.218Z,23.05
2017-11-16T07:42:32.686Z,22.95
2017-11-16T07:45:00.162Z,20.80
2017-11-16T07:47:27.656Z,22.05
2017-11-16T07:49:55.122Z,21.58
2017-11-16T07:52:22.599Z,23.05
2017-11-16T07:54:50.169Z,21.85
2017-11-16T07:57:17.706Z,25.25
2017-11-16T07:59:45.234Z,21.55
2017-11-16T08:02:13.479Z,22.40
2017-11-16T08:04:41.051Z,23.40
2017-11-16T08:07:09.372Z,24.05
2017-11-16T08:09:36.883Z,24.37
2017-11-16T08:12:04.373Z,24.40
2017-11-16T08:14:31.851Z,25.00
2017-11-16T08:16:59.332Z,25.58
2017-11-16T08:19:26.797Z,26.37
2017-11-16T08:21:54.316Z,26.92
2017-11-16T08:24:21.783Z,29.17
2017-11-16T08:26:49.260Z,28.27
2017-11-16T08:29:16.847Z,31.33
2017-11-16T08:31:44.324Z,28.12
2017-11-16T08:34:12.568Z,28.25
2017-11-16T08:36:40.057Z,28.10
2017-11-16T08:39:07.549Z,28.75
2017-11-16T08:41:35.022Z,27.23
2017-11-16T08:44:02.530Z,26.17
2017-11-16T08:46:32.301Z,25.88
2017-11-16T08:48:59.827Z,31.20
2017-11-16T08:51:27.316Z,28.77
2017-11-16T08:53:54.802Z,28.15
2017-11-16T08:56:23.066Z,28.85
2017-11-16T08:58:50.628Z,27.83
2017-11-16T09:01:18.128Z,29.70
2017-11-16T09:06:19.638Z,27.42
2017-11-16T09:08:47.116Z,26.55
2017-11-16T09:11:15.393Z,26.58
2017-11-16T09:13:43.658Z,26.75
2017-11-16T09:16:11.212Z,27.65
2017-11-16T09:18:38.692Z,26.40
2017-11-16T09:21:06.943Z,26.08
2017-11-16T09:23:34.497Z,24.48
2017-11-16T09:26:01.986Z,25.65
2017-11-16T09:28:30.231Z,25.12
2017-11-16T09:30:57.720Z,23.83
2017-11-16T09:33:25.268Z,23.12
2017-11-16T09:35:52.743Z,23.95
2017-11-16T09:38:20.215Z,25.08
2017-11-16T09:40:47.685Z,24.10
2017-11-16T09:43:15.162Z,25.70
2017-11-16T09:45:42.730Z,24.27
2017-11-16T09:48:10.551Z,26.77
2017-11-16T09:50:38.024Z,23.77
2017-11-16T09:53:05.501Z,24.33
2017-11-16T09:55:33.124Z,23.30
2017-11-16T09:58:00.637Z,24.58
2017-11-16T10:00:28.881Z,25.48
2017-11-16T10:02:56.369Z,23.85
2017-11-16T10:05:24.645Z,24.92
2017-11-16T10:07:52.904Z,25.05
2017-11-16T10:10:20.472Z,23.73
2017-11-16T10:12:48.717Z,25.05
2017-11-16T10:15:16.216Z,25.70
2017-11-16T10:17:44.531Z,28.55
2017-11-16T10:20:12.048Z,25.85
2017-11-16T10:22:40.304Z,26.20
2017-11-16T10:25:07.878Z,25.90
2017-11-16T10:27:35.348Z,26.90
2017-11-16T10:30:03.599Z,29.17
2017-11-16T10:32:31.092Z,29.92
2017-11-16T10:34:58.572Z,29.90
2017-11-16T10:37:26.043Z,29.45
2017-11-16T10:39:53.573Z,28.55
2017-11-16T10:42:21.051Z,27.25
2017-11-16T10:44:48.580Z,26.77
2017-11-16T10:47:16.070Z,27.50
2017-11-16T10:49:43.561Z,26.40
2017-11-16T10:52:11.047Z,26.42
2017-11-16T10:54:38.612Z,22.95
2017-11-16T10:57:06.155Z,27.80
2017-11-16T10:59:34.399Z,26.77
2017-11-16T11:02:01.879Z,26.98
2017-11-16T11:04:29.348Z,26.20
2017-11-16T11:06:57.600Z,23.25
2017-11-16T11:09:25.068Z,22.30
2017-11-16T11:11:52.542Z,22.65
2017-11-16T11:14:20.083Z,21.50
2017-11-16T11:16:47.655Z,22.55
2017-11-16T11:19:15.944Z,21.20
2017-11-16T11:21:43.491Z,19.95
2017-11-16T11:24:11.743Z,19.73
2017-11-16T11:26:39.223Z,20.60
2017-11-16T11:29:07.498Z,19.60
2017-11-16T11:31:35.738Z,19.23
2017-11-16T11:34:03.224Z,19.62
2017-11-16T11:36:31.588Z,19.98
2017-11-16T11:38:59.057Z,18.37
2017-11-16T11:41:27.314Z,18.55
2017-11-16T11:43:54.875Z,17.45
2017-11-16T11:46:22.356Z,20.17
2017-11-16T11:48:50.590Z,19.37
2017-11-16T11:51:18.162Z,20.60
2017-11-16T11:53:45.659Z,20.35
2017-11-16T11:56:13.159Z,19.20
2017-11-16T11:58:40.760Z,20.00
2017-11-16T12:01:08.229Z,20.67
2017-11-16T12:03:35.725Z,20.92
2017-11-16T12:06:03.199Z,18.83
2017-11-16T12:08:30.781Z,21.95
2017-11-16T12:10:59.079Z,20.77
2017-11-16T12:13:26.559Z,20.95
2017-11-16T12:15:54.184Z,18.85
2017-11-16T12:18:22.432Z,18.77
2017-11-16T12:20:50.158Z,20.10
2017-11-16T12:23:17.661Z,17.95
2017-11-16T12:25:45.221Z,17.40
2017-11-16T12:28:12.776Z,17.75
2017-11-16T12:30:40.260Z,17.58
2017-11-16T12:33:07.801Z,15.80
2017-11-16T12:35:35.354Z,17.30
2017-11-16T12:38:02.831Z,14.32
2017-11-16T12:40:31.086Z,16.67
2017-11-16T12:43:00.133Z,17.12
2017-11-16T12:45:27.605Z,15.02
2017-11-16T12:47:55.090Z,16.15
2017-11-16T12:50:22.554Z,16.98
2017-11-16T12:52:50.120Z,16.33
2017-11-16T12:55:18.380Z,15.75
2017-11-16T12:57:45.946Z,15.73
2017-11-16T13:00:13.505Z,16.05
2017-11-16T13:02:41.798Z,17.62
2017-11-16T13:05:10.038Z,18.02
2017-11-16T13:07:37.615Z,16.23
2017-11-16T13:10:05.177Z,16.30
2017-11-16T13:12:32.683Z,17.20
2017-11-16T13:15:00.204Z,17.20
2017-11-16T13:17:27.800Z,17.15
2017-11-16T13:19:55.303Z,16.95
2017-11-16T13:22:22.775Z,16.75
2017-11-16T13:24:51.358Z,18.48
2017-11-16T13:27:19.599Z,18.35
2017-11-16T13:29:47.197Z,18.23
2017-11-16T13:32:15.617Z,17.30
2017-11-16T13:34:43.119Z,18.23
2017-11-16T13:37:10.599Z,18.30
2017-11-16T13:39:38.087Z,17.58
2017-11-16T13:42:05.563Z,18.12
2017-11-16T13:44:33.053Z,17.20
2017-11-16T13:47:01.295Z,17.00
2017-11-16T13:49:28.778Z,17.58
2017-11-16T13:51:56.387Z,18.25
2017-11-16T13:54:23.871Z,18.58
2017-11-16T13:56:51.339Z,16.65
2017-11-16T13:59:18.833Z,16.33
2017-11-16T14:01:46.297Z,16.70
2017-11-16T14:04:13.771Z,16.10
2017-11-16T14:06:41.266Z,19.33
2017-11-16T14:09:08.750Z,16.62
2017-11-16T14:11:36.999Z,18.83
2017-11-16T14:14:04.470Z,19.25
2017-11-16T14:16:32.081Z,17.35
2017-11-16T14:18:59.551Z,18.50
2017-11-16T14:21:27.025Z,17.30
2017-11-16T14:23:54.593Z,21.23
2017-11-16T14:26:22.074Z,17.90
2017-11-16T14:28:50.386Z,18.90
2017-11-16T14:31:17.870Z,18.10
2017-11-16T14:33:45.349Z,17.60
2017-11-16T14:36:12.822Z,17.73
2017-11-16T14:38:41.058Z,17.58
2017-11-16T14:41:08.590Z,18.30
2017-11-16T14:43:36.058Z,17.27
2017-11-16T14:46:03.528Z,15.48
2017-11-16T14:48:31.009Z,17.30
2017-11-16T14:50:58.578Z,15.57
2017-11-16T14:53:26.807Z,14.85
2017-11-16T14:55:54.297Z,15.20
2017-11-16T14:58:21.776Z,13.70
2017-11-16T15:00:50.015Z,14.60
2017-11-16T15:03:17.610Z,13.70
2017-11-16T15:05:45.865Z,15.27
2017-11-16T15:08:13.414Z,15.20
2017-11-16T15:10:40.979Z,14.90
2017-11-16T15:13:08.455Z,15.45
2017-11-16T15:15:36.682Z,15.70
2017-11-16T15:18:04.184Z,14.55
2017-11-16T15:20:32.453Z,15.60
2017-11-16T15:23:00.014Z,14.65
2017-11-16T15:25:27.496Z,14.95
2017-11-16T15:27:55.719Z,16.08
2017-11-16T15:30:23.189Z,16.50
2017-11-16T15:32:50.661Z,16.12
2017-11-16T15:35:18.919Z,15.73
2017-11-16T15:37:46.384Z,15.85
2017-11-16T15:40:13.862Z,17.60
2017-11-16T15:42:42.106Z,16.62
2017-11-16T15:45:09.593Z,16.35
2017-11-16T15:47:37.827Z,16.30
2017-11-16T15:50:05.358Z,16.05
2017-11-16T15:52:32.862Z,15.48
2017-11-16T15:55:00.337Z,17.45
2017-11-16T15:57:28.575Z,16.85
2017-11-16T15:59:56.207Z,16.52
2017-11-16T16:02:23.676Z,17.40
2017-11-16T16:04:51.139Z,16.70
2017-11-16T16:07:18.621Z,17.23
2017-11-16T16:09:46.098Z,16.33
2017-11-16T16:12:14.411Z,15.05
2017-11-16T16:14:41.874Z,16.10
2017-11-16T16:17:09.341Z,19.58
2017-11-16T16:19:37.291Z,17.40
2017-11-16T16:22:04.815Z,16.87
2017-11-16T16:24:33.039Z,14.52
2017-11-16T16:27:00.514Z,14.90
2017-11-16T16:29:27.989Z,15.00
2017-11-16T16:31:56.983Z,14.50
2017-11-16T16:34:24.448Z,14.45
2017-11-16T16:36:51.918Z,14.73
2017-11-16T16:39:20.275Z,14.00
2017-11-16T16:41:47.749Z,14.43
2017-11-16T16:44:16.055Z,15.20
2017-11-16T16:46:43.519Z,14.23
2017-11-16T16:49:11.004Z,16.23
2017-11-16T16:51:38.525Z,15.50
2017-11-16T16:54:06.016Z,14.32
2017-11-16T16:56:33.484Z,15.10
2017-11-16T16:59:00.976Z,15.32
2017-11-16T17:01:28.463Z,15.82
2017-11-16T17:03:55.925Z,13.57
2017-11-16T17:06:23.410Z,15.63
2017-11-16T17:08:50.974Z,14.87
2017-11-16T17:11:18.553Z,14.95
2017-11-16T17:13:46.063Z,15.15
2017-11-16T17:16:13.592Z,13.68
2017-11-16T17:18:41.110Z,15.40
2017-11-16T17:21:08.587Z,15.38
2017-11-16T17:23:36.840Z,14.57
2017-11-16T17:26:04.317Z,14.45
2017-11-16T17:28:32.576Z,14.02
2017-11-16T17:31:00.053Z,14.60
2017-11-16T17:33:28.906Z,15.70
2017-11-16T17:35:56.378Z,13.48
2017-11-16T17:38:23.852Z,14.93
2017-11-16T17:40:52.103Z,14.63
2017-11-16T17:43:19.621Z,14.80
2017-11-16T17:45:47.151Z,13.02
2017-11-16T17:48:14.683Z,14.13
2017-11-16T17:50:42.234Z,13.65
2017-11-16T17:53:10.463Z,15.32
2017-11-16T17:55:38.027Z,15.05
2017-11-16T17:58:05.529Z,14.07
2017-11-16T18:00:33.828Z,15.13
2017-11-16T18:03:02.096Z,14.65
2017-11-16T18:05:29.552Z,14.73
2017-11-16T18:07:57.018Z,14.10
2017-11-16T18:10:25.256Z,15.77
2017-11-16T18:12:52.764Z,15.77
2017-11-16T18:15:20.295Z,15.05
2017-11-16T18:17:47.855Z,16.85
2017-11-16T18:20:16.117Z,15.77
2017-11-16T18:22:43.675Z,16.20
2017-11-16T18:25:11.233Z,15.00
2017-11-16T18:27:38.702Z,15.82
2017-11-16T18:30:06.175Z,17.25
2017-11-16T18:32:34.431Z,14.80
2017-11-16T18:35:02.039Z,16.55
2017-11-16T18:37:29.548Z,16.75
2017-11-16T18:39:58.549Z,14.63
2017-11-16T18:42:26.919Z,18.27
2017-11-16T18:44:54.491Z,15.85
2017-11-16T18:47:22.726Z,18.77
2017-11-16T18:49:50.273Z,19.08
2017-11-16T18:52:17.812Z,17.75
2017-11-16T18:54:45.274Z,18.67
2017-11-16T18:57:12.791Z,18.33
2017-11-16T18:59:40.334Z,19.50
2017-11-16T19:02:07.839Z,18.52
2017-11-16T19:04:35.400Z,20.77
2017-11-16T19:07:02.991Z,19.20
2017-11-16T19:09:30.749Z,17.90
2017-11-16T19:11:58.233Z,17.50
2017-11-16T19:14:25.761Z,18.98
2017-11-16T19:16:53.355Z,19.35
2017-11-16T19:19:20.986Z,18.30
2017-11-16T19:21:48.474Z,18.27
2017-11-16T19:24:16.146Z,19.20
2017-11-16T19:26:44.412Z,18.60
2017-11-16T19:29:11.872Z,20.30
2017-11-16T19:31:40.105Z,18.35
2017-11-16T19:34:07.596Z,19.20
2017-11-16T19:36:35.163Z,20.10
2017-11-16T19:39:02.650Z,18.15
2017-11-16T19:41:30.109Z,20.37
2017-11-16T19:43:57.634Z,17.80
2017-11-16T19:46:25.102Z,18.65
2017-11-16T19:48:53.349Z,20.02
2017-11-16T19:51:20.823Z,17.83
2017-11-16T19:53:49.057Z,21.10
2017-11-16T19:56:16.542Z,19.48
2017-11-16T19:58:44.002Z,22.37
2017-11-16T20:01:11.518Z,19.67
2017-11-16T20:03:38.987Z,20.25
2017-11-16T20:06:06.569Z,21.60
2017-11-16T20:08:34.030Z,21.17
2017-11-16T20:11:01.494Z,20.95
2017-11-16T20:13:29.511Z,19.52
2017-11-16T20:15:57.028Z,20.45
2017-11-16T20:18:24.599Z,20.02
2017-11-16T20:20:52.848Z,19.85
2017-11-16T20:23:20.320Z,22.13
2017-11-16T20:25:48.663Z,19.87
2017-11-16T20:28:16.135Z,21.17
2017-11-16T20:30:43.603Z,20.95
2017-11-16T20:33:11.091Z,21.30
2017-11-16T20:35:38.550Z,19.87
2017-11-16T20:38:07.924Z,23.02
2017-11-16T20:40:39.059Z,21.98
2017-11-16T20:43:17.584Z,21.35
2017-11-16T20:45:45.985Z,22.87
2017-11-16T20:48:20.024Z,21.45
2017-11-16T20:50:53.322Z,22.92
2017-11-16T20:53:26.635Z,22.23
2017-11-16T20:55:54.223Z,22.13
2017-11-16T20:58:22.570Z,21.33
2017-11-16T21:00:50.147Z,20.83
2017-11-16T21:03:17.856Z,23.05
2017-11-16T21:05:45.483Z,23.17
2017-11-16T21:08:13.815Z,23.12
2017-11-16T21:10:41.428Z,21.70
2017-11-16T21:13:09.776Z,22.15
2017-11-16T21:15:37.379Z,22.13
2017-11-16T21:18:04.958Z,22.55
2017-11-16T21:20:32.552Z,22.08
2017-11-16T21:23:00.194Z,21.80
2017-11-16T21:25:27.780Z,19.92
2017-11-16T21:27:55.327Z,21.90
2017-11-16T21:30:23.007Z,20.23
2017-11-16T21:32:50.605Z,22.00
2017-11-16T21:35:18.212Z,22.23
2017-11-16T21:37:45.932Z,22.35
2017-11-16T21:40:13.496Z,19.73
2017-11-16T21:42:40.964Z,21.65
2017-11-16T21:45:08.429Z,21.05
2017-11-16T21:47:35.905Z,21.48
2017-11-16T21:50:04.203Z,21.67
2017-11-16T21:52:32.454Z,22.10
2017-11-16T21:55:00.020Z,21.58
2017-11-16T21:57:28.662Z,20.92
2017-11-16T21:59:56.175Z,22.10
2017-11-16T22:02:23.640Z,20.85
2017-11-16T22:04:51.867Z,20.88
2017-11-16T22:07:20.113Z,22.20
2017-11-16T22:09:47.583Z,21.50
2017-11-16T22:12:15.101Z,20.70
2017-11-16T22:14:42.645Z,21.05
2017-11-16T22:17:10.212Z,20.20
2017-11-16T22:19:37.696Z,23.25
2017-11-16T22:22:05.227Z,24.20
2017-11-16T22:24:32.692Z,23.05
2017-11-16T22:27:00.958Z,21.60
2017-11-16T22:29:28.565Z,21.52
2017-11-16T22:31:56.083Z,21.25
2017-11-16T22:34:24.320Z,21.58
2017-11-16T22:36:51.807Z,23.23
2017-11-16T22:39:19.268Z,22.98
2017-11-16T22:41:47.507Z,23.52
2017-11-16T22:44:14.978Z,23.35
2017-11-16T22:46:42.437Z,22.00
2017-11-16T22:49:09.898Z,21.12
2017-11-16T22:51:37.486Z,21.45
2017-11-16T22:54:05.800Z,22.75
2017-11-16T22:56:33.312Z,22.08
2017-11-16T22:59:01.567Z,21.08
2017-11-16T23:01:29.102Z,23.20
2017-11-16T23:03:56.584Z,22.90
2017-11-16T23:06:24.060Z,22.85
2017-11-16T23:08:52.302Z,23.10
2017-11-16T23:11:19.762Z,22.87
2017-11-16T23:13:47.249Z,22.40
2017-11-16T23:16:15.499Z,24.08
2017-11-16T23:18:43.067Z,22.37
2017-11-16T23:21:10.543Z,21.55
2017-11-16T23:23:38.086Z,23.48
2017-11-16T23:26:05.663Z,22.25
2017-11-16T23:28:33.901Z,22.35
2017-11-16T23:31:01.372Z,21.48
2017-11-16T23:33:29.263Z,22.33
2017-11-16T23:35:57.494Z,22.33
2017-11-16T23:38:24.954Z,22.37
2017-11-16T23:40:52.436Z,22.33
2017-11-16T23:43:20.706Z,23.15
2017-11-16T23:45:48.938Z,21.92
2017-11-16T23:48:16.407Z,24.35
2017-11-16T23:50:43.932Z,23.67
2017-11-16T23:53:12.133Z,22.33
2017-11-16T23:55:39.643Z,22.70
2017-11-16T23:58:07.955Z,22.02
